Time;durP1;ratioP1;P1;durP2;ratioP2;P2;SDS_P1;SDS_P2;PMS_P1;PMS_P2;Temp;Humidity;BMP_temperature;BMP_pressure;BME280_temperature;BME280_humidity;BME280_pressure;Samples;Min_cycle;Max_cycle;Signal;HPM_P1;HPM_P2
2023/08/17 04:30:24;;;;;;;0.00;0.00;;;19.00;78.20;;;;;;5964390;23;20107;31
2023/08/17 04:32:52;;;;;;;0.00;0.00;;;19.00;78.20;;;;;;4891259;29;20512;-78
2023/08/17 04:35:18;;;;;;;0.22;0.00;;;19.00;78.20;;;;;;4885961;29;20106;-78
2023/08/17 04:37:44;;;;;;;0.00;0.00;;;19.00;78.40;;;;;;4885722;29;20029;-79
2023/08/17 04:40:10;;;;;;;0.00;0.00;;;19.00;78.40;;;;;;4885968;29;20037;-78
2023/08/17 04:42:36;;;;;;;0.00;0.00;;;18.90;78.50;;;;;;4885908;29;20480;-78
2023/08/17 04:45:02;;;;;;;0.00;0.00;;;18.90;78.50;;;;;;4885794;29;20061;-78
2023/08/17 04:47:27;;;;;;;0.00;0.00;;;19.00;78.40;;;;;;4885806;29;20589;-78
2023/08/17 04:49:53;;;;;;;0.00;0.00;;;18.90;78.50;;;;;;4885668;29;20037;-78
2023/08/17 04:52:19;;;;;;;0.00;0.00;;;19.00;78.40;;;;;;4885637;29;20021;-78
2023/08/17 04:54:44;;;;;;;0.00;0.00;;;18.90;78.40;;;;;;4885463;29;20029;-78
2023/08/17 04:57:10;;;;;;;0.00;0.00;;;18.90;78.60;;;;;;4885664;29;20034;-78
2023/08/17 04:59:36;;;;;;;0.00;0.00;;;18.90;78.70;;;;;;4870160;29;20488;-78
2023/08/17 05:02:01;;;;;;;0.00;0.00;;;18.80;78.70;;;;;;4904533;29;20104;-79
2023/08/17 05:04:29;;;;;;;0.00;0.00;;;18.90;78.60;;;;;;4904666;29;20029;-79
2023/08/17 05:06:55;;;;;;;0.00;0.00;;;18.80;78.60;;;;;;4887519;29;20119;-79
2023/08/17 05:09:21;;;;;;;0.00;0.00;;;18.80;78.60;;;;;;4904515;29;20052;-79
2023/08/17 05:11:46;;;;;;;0.03;0.03;;;18.80;78.50;;;;;;4904509;29;20024;-78
2023/08/17 05:14:12;;;;;;;0.00;0.00;;;18.80;78.80;;;;;;4904605;29;20067;-78
2023/08/17 05:16:38;;;;;;;0.00;0.00;;;18.80;78.90;;;;;;4904561;29;20064;-79
2023/08/17 05:19:03;;;;;;;0.00;0.00;;;18.80;78.70;;;;;;4904464;29;20044;-79
2023/08/17 05:21:29;;;;;;;0.00;0.00;;;18.90;78.90;;;;;;4890729;29;20116;-79
2023/08/17 05:23:55;;;;;;;0.00;0.00;;;18.90;79.00;;;;;;4904631;29;20029;-79
2023/08/17 05:26:21;;;;;;;0.00;0.00;;;18.90;78.70;;;;;;4904380;29;20036;-79
2023/08/17 05:28:47;;;;;;;0.00;0.00;;;19.00;78.90;;;;;;4904374;29;20036;-78
2023/08/17 05:31:13;;;;;;;0.00;0.00;;;19.00;78.60;;;;;;4904243;29;20045;-79
2023/08/17 05:33:40;;;;;;;0.00;0.00;;;19.00;78.80;;;;;;4904206;29;20494;-79
2023/08/17 05:36:07;;;;;;;0.03;0.03;;;19.00;78.80;;;;;;4904188;29;20016;-79
2023/08/17 05:38:32;;;;;;;0.08;0.08;;;19.00;78.70;;;;;;4904276;29;20063;-79
2023/08/17 05:40:59;;;;;;;0.00;0.00;;;19.10;78.80;;;;;;4903888;29;20025;-79
2023/08/17 05:43:25;;;;;;;0.00;0.00;;;19.10;78.80;;;;;;4904296;29;20024;-79
2023/08/17 05:45:51;;;;;;;0.00;0.00;;;19.10;78.70;;;;;;4904275;29;20021;-79
2023/08/17 05:48:19;;;;;;;0.00;0.00;;;19.10;78.80;;;;;;4904079;29;20550;-79
2023/08/17 05:50:45;;;;;;;0.00;0.00;;;19.10;78.90;;;;;;4903924;29;20029;-79
2023/08/17 05:53:10;;;;;;;0.08;0.08;;;19.10;78.70;;;;;;4904125;29;20493;-79
2023/08/17 05:55:36;;;;;;;0.00;0.00;;;19.20;78.90;;;;;;4903861;29;20511;-79
2023/08/17 05:58:03;;;;;;;0.00;0.00;;;19.20;78.90;;;;;;4903853;29;20052;-79
2023/08/17 06:00:29;;;;;;;0.00;0.00;;;19.10;79.00;;;;;;4903506;29;20031;-79
2023/08/17 06:03:00;;;;;;;0.10;0.10;;;19.10;78.90;;;;;;4903729;29;20028;-78
2023/08/17 06:05:30;;;;;;;0.00;0.00;;;19.10;79.10;;;;;;4903665;29;20020;-79
2023/08/17 06:07:56;;;;;;;0.00;0.00;;;19.20;79.20;;;;;;4903353;29;20069;-79
2023/08/17 06:10:26;;;;;;;0.00;0.00;;;19.20;79.20;;;;;;4902819;29;20060;-79
2023/08/17 06:12:55;;;;;;;0.00;0.00;;;19.20;79.40;;;;;;4903394;29;20053;-78
2023/08/17 06:15:21;;;;;;;0.00;0.00;;;19.20;79.40;;;;;;4903559;29;20057;-78
2023/08/17 06:17:49;;;;;;;0.00;0.00;;;19.30;79.70;;;;;;4886353;29;20039;-78
2023/08/17 06:20:16;;;;;;;0.00;0.00;;;19.30;79.90;;;;;;4886502;29;20039;-78
2023/08/17 06:22:41;;;;;;;0.10;0.10;;;19.30;80.00;;;;;;4903347;29;20056;-79
2023/08/17 06:25:08;;;;;;;0.00;0.00;;;19.40;80.10;;;;;;4886376;29;20071;-78
2023/08/17 06:27:34;;;;;;;0.00;0.00;;;19.40;79.90;;;;;;4903414;29;20100;-78
2023/08/17 06:30:00;;;;;;;0.20;0.10;;;19.50;80.10;;;;;;4903091;29;20130;-78
2023/08/17 06:32:26;;;;;;;0.00;0.00;;;19.50;80.30;;;;;;4902990;29;20080;-78
2023/08/17 06:34:54;;;;;;;0.10;0.10;;;19.60;80.30;;;;;;4903132;29;20025;-79
2023/08/17 06:37:19;;;;;;;0.10;0.10;;;19.60;80.20;;;;;;4902891;29;20112;-79
2023/08/17 06:39:45;;;;;;;0.00;0.00;;;19.70;80.40;;;;;;4886470;29;20123;-78
2023/08/17 06:42:11;;;;;;;0.00;0.00;;;19.80;80.40;;;;;;4903370;29;20111;-78
2023/08/17 06:44:36;;;;;;;0.00;0.00;;;19.80;80.50;;;;;;4903203;29;20105;-78
2023/08/17 06:47:02;;;;;;;0.10;0.10;;;19.80;80.30;;;;;;4886270;29;20080;-79
2023/08/17 06:49:27;;;;;;;0.00;0.00;;;19.90;80.00;;;;;;4903028;29;20035;-79
2023/08/17 06:51:53;;;;;;;0.10;0.10;;;19.90;80.00;;;;;;4902140;29;20049;-79
2023/08/17 06:54:19;;;;;;;0.00;0.00;;;19.90;80.20;;;;;;4885973;29;20029;-78
2023/08/17 06:56:45;;;;;;;0.00;0.00;;;19.90;80.20;;;;;;4885956;29;20032;-78
2023/08/17 06:59:11;;;;;;;0.00;0.00;;;20.00;80.20;;;;;;4902883;29;20028;-78
2023/08/17 07:01:36;;;;;;;0.10;0.10;;;20.00;80.50;;;;;;4902608;29;20028;-78
2023/08/17 07:04:02;;;;;;;0.00;0.00;;;20.10;80.40;;;;;;4902583;29;20043;-78
2023/08/17 07:06:28;;;;;;;0.10;0.10;;;20.20;80.10;;;;;;4902532;29;20031;-78
2023/08/17 07:08:54;;;;;;;0.00;0.00;;;20.30;80.00;;;;;;4902756;29;20429;-79
2023/08/17 07:11:20;;;;;;;0.00;0.00;;;20.30;79.80;;;;;;4885897;29;20063;-79
2023/08/17 07:13:46;;;;;;;0.00;0.00;;;20.40;79.70;;;;;;4885638;29;20599;-78
2023/08/17 07:16:13;;;;;;;0.00;0.00;;;20.50;79.60;;;;;;4902246;29;20399;-78
2023/08/17 07:18:38;;;;;;;0.03;0.03;;;20.60;79.40;;;;;;4902684;29;20036;-78
2023/08/17 07:21:04;;;;;;;0.00;0.00;;;20.80;79.30;;;;;;4902536;29;20029;-79
2023/08/17 07:23:29;;;;;;;0.00;0.00;;;20.90;79.00;;;;;;4902443;29;20035;-79
2023/08/17 07:25:55;;;;;;;0.00;0.00;;;21.10;78.90;;;;;;4900982;29;20480;-79
2023/08/17 07:28:21;;;;;;;0.00;0.00;;;21.20;78.10;;;;;;4902545;29;20036;-79
2023/08/17 07:30:46;;;;;;;0.00;0.00;;;21.40;77.70;;;;;;4902263;29;20108;-79
2023/08/17 07:33:12;;;;;;;0.00;0.00;;;21.50;77.60;;;;;;4902396;29;20099;-79
2023/08/17 07:35:38;;;;;;;0.00;0.00;;;21.60;77.40;;;;;;4902608;29;20037;-79
2023/08/17 07:38:03;;;;;;;0.00;0.00;;;21.70;77.10;;;;;;4902306;29;20029;-79
2023/08/17 07:40:29;;;;;;;0.10;0.10;;;21.80;76.80;;;;;;4902353;29;20448;-79
2023/08/17 07:42:55;;;;;;;0.10;0.10;;;21.90;76.70;;;;;;4885495;29;20029;-79
2023/08/17 07:45:20;;;;;;;0.10;0.10;;;22.20;76.30;;;;;;4902348;29;20040;-79
2023/08/17 07:47:46;;;;;;;0.03;0.03;;;22.30;76.10;;;;;;4902471;29;20031;-79
2023/08/17 07:50:11;;;;;;;0.10;0.10;;;22.50;75.40;;;;;;4902445;29;20032;-79
2023/08/17 07:52:37;;;;;;;0.10;0.10;;;23.00;74.80;;;;;;4902205;29;20050;-79
2023/08/17 07:55:03;;;;;;;0.00;0.00;;;23.50;72.90;;;;;;4902454;29;20089;-79
2023/08/17 07:57:29;;;;;;;0.00;0.00;;;23.70;72.40;;;;;;4902551;29;20024;-79
2023/08/17 07:59:54;;;;;;;0.10;0.10;;;23.40;72.30;;;;;;4902237;29;20487;-79
2023/08/17 08:02:20;;;;;;;0.00;0.00;;;24.10;71.90;;;;;;4902696;29;20029;-79
2023/08/17 08:04:46;;;;;;;0.00;0.00;;;23.80;71.50;;;;;;4888806;29;20036;-79
2023/08/17 08:07:11;;;;;;;0.10;0.10;;;23.60;71.80;;;;;;4905529;29;20040;-78
2023/08/17 08:09:37;;;;;;;0.05;0.05;;;23.60;71.80;;;;;;4905746;29;20444;-79
2023/08/17 08:12:03;;;;;;;0.08;0.08;;;23.80;71.30;;;;;;4905742;29;20047;-79
2023/08/17 08:14:29;;;;;;;0.10;0.10;;;24.00;71.20;;;;;;4905744;29;20029;-79
2023/08/17 08:16:55;;;;;;;0.00;0.00;;;24.20;71.00;;;;;;4906139;29;20033;-79
2023/08/17 08:19:20;;;;;;;0.10;0.10;;;24.70;70.10;;;;;;4905594;29;20111;-79
2023/08/17 08:21:46;;;;;;;0.00;0.00;;;24.40;69.60;;;;;;4904887;29;20484;-79
2023/08/17 08:24:12;;;;;;;0.40;0.40;;;24.30;70.40;;;;;;4888735;29;20033;-79
2023/08/17 08:26:37;;;;;;;0.00;0.00;;;25.80;67.50;;;;;;4905539;29;20028;-79
2023/08/17 08:29:03;;;;;;;0.20;0.20;;;26.30;65.80;;;;;;4905271;29;20075;-79
2023/08/17 08:31:29;;;;;;;0.13;0.13;;;26.70;64.50;;;;;;4905018;29;20068;-79
2023/08/17 08:33:54;;;;;;;0.13;0.13;;;27.00;64.70;;;;;;4888410;29;20025;-79
2023/08/17 08:36:20;;;;;;;0.25;0.20;;;27.20;63.80;;;;;;4905064;29;20108;-80
2023/08/17 08:38:46;;;;;;;0.10;0.10;;;27.50;63.10;;;;;;4905290;29;20115;-79
2023/08/17 08:41:12;;;;;;;0.00;0.00;;;27.80;63.00;;;;;;4888207;29;20052;-79
2023/08/17 08:43:41;;;;;;;0.10;0.10;;;28.00;61.50;;;;;;4904994;29;20032;-80
2023/08/17 08:46:07;;;;;;;0.30;0.30;;;28.30;59.60;;;;;;4905119;29;20029;-79
2023/08/17 08:48:35;;;;;;;0.40;0.40;;;29.10;57.90;;;;;;4905072;29;20085;-80
2023/08/17 08:51:04;;;;;;;0.40;0.40;;;30.20;55.90;;;;;;4905160;29;20128;-80
2023/08/17 08:53:38;;;;;;;0.40;0.40;;;31.10;53.30;;;;;;4904980;29;20031;-79
2023/08/17 08:56:04;;;;;;;0.43;0.43;;;31.90;51.40;;;;;;4905114;29;20036;-79
2023/08/17 08:58:32;;;;;;;0.30;0.30;;;32.10;49.50;;;;;;4904989;29;20164;-79
2023/08/17 09:00:58;;;;;;;0.20;0.20;;;32.00;50.00;;;;;;4904743;29;20532;-79
2023/08/17 09:03:26;;;;;;;0.10;0.10;;;32.00;50.90;;;;;;4904662;29;20044;-78
2023/08/17 09:05:52;;;;;;;0.20;0.20;;;31.50;52.20;;;;;;4904824;29;20458;-79
2023/08/17 09:08:22;;;;;;;0.30;0.30;;;31.30;53.30;;;;;;4904082;29;20512;-79
2023/08/17 09:10:49;;;;;;;0.40;0.40;;;31.00;53.60;;;;;;4904803;29;20072;-79
2023/08/17 09:13:15;;;;;;;0.30;0.30;;;31.00;53.70;;;;;;4904812;29;20028;-79
2023/08/17 09:15:41;;;;;;;0.75;0.75;;;30.90;54.10;;;;;;4903591;29;20480;-79
2023/08/17 09:18:09;;;;;;;0.20;0.20;;;31.30;52.80;;;;;;4904475;29;20118;-79
2023/08/17 09:20:44;;;;;;;0.00;0.00;;;31.40;52.90;;;;;;4904498;29;20084;-79
2023/08/17 09:23:13;;;;;;;0.10;0.10;;;32.10;52.80;;;;;;4904667;29;20436;-79
2023/08/17 09:25:43;;;;;;;0.00;0.00;;;32.40;51.90;;;;;;4904215;29;20036;-79
2023/08/17 09:28:14;;;;;;;0.30;0.30;;;31.80;50.70;;;;;;4902735;29;20051;-79
2023/08/17 09:30:53;;;;;;;0.50;0.50;;;31.10;53.00;;;;;;4904240;29;20500;-79
2023/08/17 09:33:24;;;;;;;2.08;1.98;;;32.10;51.40;;;;;;4895564;29;20028;-79
2023/08/17 09:35:54;;;;;;;0.40;0.40;;;32.50;50.50;;;;;;4904092;29;20108;-79
2023/08/17 09:38:20;;;;;;;0.30;0.30;;;32.90;49.90;;;;;;4886951;29;20033;-79
2023/08/17 09:40:48;;;;;;;0.10;0.10;;;32.70;49.90;;;;;;4904161;29;20044;-79
2023/08/17 09:43:14;;;;;;;0.10;0.10;;;32.40;50.70;;;;;;4904096;29;20067;-79
2023/08/17 09:45:44;;;;;;;0.10;0.10;;;32.30;52.40;;;;;;4903990;29;20032;-79
2023/08/17 09:48:10;;;;;;;0.00;0.00;;;31.80;52.40;;;;;;4886899;29;20037;-79
2023/08/17 09:50:36;;;;;;;0.00;0.00;;;31.00;54.60;;;;;;4904280;29;20392;-79
2023/08/17 09:53:04;;;;;;;0.00;0.00;;;30.40;55.50;;;;;;4903767;29;20083;-79
2023/08/17 09:55:34;;;;;;;0.10;0.10;;;29.90;57.20;;;;;;4903679;29;20021;-79
2023/08/17 09:58:00;;;;;;;0.00;0.00;;;29.50;58.20;;;;;;4903645;29;20139;-79
2023/08/17 10:00:28;;;;;;;0.00;0.00;;;29.30;59.20;;;;;;4886616;29;20036;-79
2023/08/17 10:02:54;;;;;;;0.10;0.10;;;29.40;59.50;;;;;;4886698;29;20391;-79
2023/08/17 10:05:20;;;;;;;0.00;0.00;;;29.60;59.90;;;;;;4903510;29;20169;-79
2023/08/17 10:07:51;;;;;;;0.10;0.10;;;29.60;60.00;;;;;;4903314;29;20064;-79
2023/08/17 10:10:25;;;;;;;0.00;0.00;;;29.50;59.60;;;;;;4903534;29;20036;-79
2023/08/17 10:13:13;;;;;;;0.13;0.13;;;29.10;59.70;;;;;;4886578;29;20088;-79
2023/08/17 10:16:05;;;;;;;0.20;0.20;;;29.30;60.00;;;;;;4903088;29;20044;-79
2023/08/17 10:18:33;;;;;;;;;;;29.60;60.70;;;;;;4889037;29;20040;-79
2023/08/17 10:21:10;;;;;;;0.40;0.40;;;30.40;57.90;;;;;;4902779;29;19912;-79
2023/08/17 10:23:37;;;;;;;0.90;0.90;;;30.90;57.30;;;;;;4903197;29;20373;-79
2023/08/17 10:26:03;;;;;;;0.40;0.40;;;31.20;55.50;;;;;;4886132;29;20065;-79
2023/08/17 10:28:31;;;;;;;0.40;0.40;;;31.40;56.10;;;;;;4886154;29;20480;-79
2023/08/17 10:30:58;;;;;;;0.10;0.10;;;31.70;55.00;;;;;;4886028;29;20052;-79
2023/08/17 10:33:25;;;;;;;0.00;0.00;;;31.40;54.60;;;;;;4903018;29;20073;-79
2023/08/17 10:35:51;;;;;;;0.00;0.00;;;31.30;56.10;;;;;;4885857;29;20384;-79
2023/08/17 10:38:17;;;;;;;0.00;0.00;;;31.20;55.90;;;;;;4885925;29;20484;-79
2023/08/17 10:40:43;;;;;;;0.00;0.00;;;30.80;56.10;;;;;;4903247;29;20104;-79
2023/08/17 10:43:09;;;;;;;0.05;0.05;;;30.50;57.70;;;;;;4885982;29;20036;-79
2023/08/17 10:45:38;;;;;;;0.00;0.00;;;30.10;57.40;;;;;;4903140;29;20393;-79
2023/08/17 10:48:09;;;;;;;0.00;0.00;;;29.80;57.70;;;;;;4902792;29;20056;-79
2023/08/17 10:50:39;;;;;;;0.00;0.00;;;29.50;58.80;;;;;;4902804;29;20464;-79
2023/08/17 10:53:09;;;;;;;0.00;0.00;;;29.70;58.70;;;;;;4902624;29;20048;-79
2023/08/17 10:55:42;;;;;;;0.00;0.00;;;29.50;57.70;;;;;;4885820;29;20028;-79
2023/08/17 10:58:08;;;;;;;0.10;0.10;;;29.40;58.00;;;;;;4902880;29;20388;-79
2023/08/17 11:00:36;;;;;;;0.10;0.10;;;29.50;58.50;;;;;;4902670;29;20025;-79
2023/08/17 11:03:10;;;;;;;0.10;0.10;;;29.60;57.40;;;;;;4892636;29;20476;-79
2023/08/17 11:05:42;;;;;;;0.10;0.10;;;29.90;57.50;;;;;;4902876;29;20028;-79
2023/08/17 11:08:10;;;;;;;0.00;0.00;;;30.10;57.00;;;;;;4902448;29;20396;-79
2023/08/17 11:10:37;;;;;;;0.05;0.05;;;29.90;56.60;;;;;;4902717;29;20024;-79
2023/08/17 11:13:04;;;;;;;0.00;0.00;;;29.90;58.00;;;;;;4902586;29;20020;-79
2023/08/17 11:15:39;;;;;;;0.00;0.00;;;29.90;57.20;;;;;;4902553;29;20029;-79
2023/08/17 11:18:10;;;;;;;0.00;0.00;;;29.80;57.90;;;;;;4902742;29;20032;-79
2023/08/17 11:20:37;;;;;;;0.10;0.10;;;29.60;58.00;;;;;;4902444;29;20107;-79
2023/08/17 11:23:03;;;;;;;0.00;0.00;;;29.70;57.40;;;;;;4902272;29;20035;-79
2023/08/17 11:25:29;;;;;;;0.10;0.10;;;29.70;57.30;;;;;;4902664;29;20059;-79
2023/08/17 11:27:55;;;;;;;0.00;0.00;;;29.90;59.10;;;;;;4885580;29;20028;-79
2023/08/17 11:30:25;;;;;;;0.10;0.10;;;29.50;58.10;;;;;;4902356;29;20107;-79
2023/08/17 11:32:51;;;;;;;0.10;0.10;;;29.50;58.30;;;;;;4902208;29;20021;-79
2023/08/17 11:35:17;;;;;;;0.00;0.00;;;29.60;58.60;;;;;;4902443;29;20400;-79
2023/08/17 11:37:43;;;;;;;0.00;0.00;;;29.60;58.50;;;;;;4903253;29;20388;-79
2023/08/17 11:40:13;;;;;;;0.00;0.00;;;29.80;58.20;;;;;;4906175;29;20035;-79
2023/08/17 11:42:39;;;;;;;0.10;0.10;;;29.70;57.30;;;;;;4905881;29;20098;-79
2023/08/17 11:45:08;;;;;;;0.10;0.10;;;29.90;56.40;;;;;;4906055;29;20121;-79
2023/08/17 11:47:35;;;;;;;0.05;0.05;;;29.90;57.10;;;;;;4889166;29;20028;-79
2023/08/17 11:50:02;;;;;;;0.10;0.10;;;30.00;56.80;;;;;;4905879;29;20456;-79
2023/08/17 11:52:29;;;;;;;0.00;0.00;;;30.00;57.00;;;;;;4905771;29;20024;-79
2023/08/17 11:54:58;;;;;;;0.05;0.05;;;30.00;56.90;;;;;;4905973;29;20035;-79
2023/08/17 11:57:23;;;;;;;0.00;0.00;;;29.70;56.50;;;;;;4905918;29;20513;-79
2023/08/17 11:59:56;;;;;;;0.10;0.10;;;29.60;57.60;;;;;;4905656;29;20033;-79
2023/08/17 12:02:23;;;;;;;;;;;29.70;58.70;;;;;;4888898;29;20087;-79
2023/08/17 12:04:49;;;;;;;0.10;0.10;;;29.80;58.00;;;;;;4905760;29;19907;-79
2023/08/17 12:07:16;;;;;;;0.10;0.10;;;30.00;57.00;;;;;;4905695;29;20491;-79
2023/08/17 12:09:44;;;;;;;0.10;0.10;;;30.30;58.00;;;;;;4905117;29;20023;-79
2023/08/17 12:12:10;;;;;;;0.10;0.10;;;30.50;55.30;;;;;;4905571;29;20028;-79
2023/08/17 12:14:36;;;;;;;0.00;0.00;;;30.50;55.90;;;;;;4905481;29;20084;-79
2023/08/17 12:17:02;;;;;;;0.00;0.00;;;30.30;56.60;;;;;;4905691;29;20032;-79
2023/08/17 12:19:29;;;;;;;0.00;0.00;;;30.00;56.70;;;;;;4888656;29;20028;-79
2023/08/17 12:21:56;;;;;;;0.00;0.00;;;29.70;56.70;;;;;;4904936;29;20419;-79
2023/08/17 12:24:24;;;;;;;0.00;0.00;;;29.40;58.40;;;;;;4905429;29;20499;-79
2023/08/17 12:26:50;;;;;;;0.10;0.10;;;29.40;58.00;;;;;;4888397;29;20083;-79
2023/08/17 12:29:15;;;;;;;0.10;0.10;;;29.80;57.80;;;;;;4905118;29;20107;-79
2023/08/17 12:31:41;;;;;;;0.00;0.00;;;29.90;58.60;;;;;;4888158;29;20411;-79
2023/08/17 12:34:07;;;;;;;0.00;0.00;;;30.10;57.00;;;;;;4904981;29;20025;-79
2023/08/17 12:36:35;;;;;;;0.00;0.00;;;30.10;56.90;;;;;;4905240;29;20538;-79
2023/08/17 12:39:01;;;;;;;0.00;0.00;;;29.90;56.80;;;;;;4904965;29;20426;-79
2023/08/17 12:41:26;;;;;;;0.08;0.08;;;29.70;57.10;;;;;;4905336;29;20035;-79
2023/08/17 12:43:58;;;;;;;0.05;0.05;;;29.50;56.60;;;;;;4905197;29;20016;-79
2023/08/17 12:46:24;;;;;;;0.00;0.00;;;29.80;57.60;;;;;;4905058;29;20111;-79
2023/08/17 12:48:49;;;;;;;0.00;0.00;;;30.10;54.60;;;;;;4903872;29;20060;-79
2023/08/17 12:51:15;;;;;;;0.00;0.00;;;30.20;55.80;;;;;;4904758;29;20069;-79
2023/08/17 12:53:42;;;;;;;0.00;0.00;;;30.10;55.10;;;;;;4904990;29;20024;-79
2023/08/17 12:56:08;;;;;;;0.00;0.00;;;29.80;54.80;;;;;;4904548;29;20511;-79
2023/08/17 12:58:33;;;;;;;0.00;0.00;;;29.60;54.80;;;;;;4904712;29;20032;-79
2023/08/17 13:00:59;;;;;;;0.00;0.00;;;29.40;55.80;;;;;;4904815;29;20040;-79
2023/08/17 13:03:24;;;;;;;0.10;0.10;;;29.50;56.00;;;;;;4904566;29;20093;-79
2023/08/17 13:05:50;;;;;;;0.00;0.00;;;30.00;56.40;;;;;;4904766;29;20060;-79
2023/08/17 13:08:16;;;;;;;0.00;0.00;;;30.00;55.20;;;;;;4904415;29;20071;-79
2023/08/17 13:10:41;;;;;;;0.10;0.10;;;30.10;55.70;;;;;;4904527;29;20029;-79
2023/08/17 13:13:07;;;;;;;0.00;0.00;;;30.10;54.80;;;;;;4887938;29;20024;-79
2023/08/17 13:15:33;;;;;;;0.00;0.00;;;30.10;55.00;;;;;;4904896;29;20028;-79
2023/08/17 13:17:59;;;;;;;0.00;0.00;;;30.10;54.50;;;;;;4904640;29;20032;-79
2023/08/17 13:20:25;;;;;;;0.10;0.10;;;30.00;55.90;;;;;;4887541;29;20036;-79
2023/08/17 13:22:51;;;;;;;0.00;0.00;;;30.20;55.40;;;;;;4904739;29;20029;-79
2023/08/17 13:25:17;;;;;;;0.03;0.03;;;30.30;55.10;;;;;;4887446;29;20420;-79
2023/08/17 13:27:42;;;;;;;0.00;0.00;;;30.00;54.90;;;;;;4887190;29;20029;-79
2023/08/17 13:30:08;;;;;;;0.00;0.00;;;29.80;55.20;;;;;;4904172;29;20040;-78
2023/08/17 13:32:34;;;;;;;0.10;0.10;;;29.90;54.90;;;;;;4904157;29;20037;-79
2023/08/17 13:35:01;;;;;;;0.00;0.00;;;30.00;54.50;;;;;;4904359;29;20076;-79
2023/08/17 13:37:27;;;;;;;0.10;0.10;;;30.10;55.50;;;;;;4903964;29;20089;-79
2023/08/17 13:39:53;;;;;;;0.10;0.10;;;30.20;54.90;;;;;;4887181;29;20036;-79
2023/08/17 13:42:19;;;;;;;0.10;0.10;;;30.30;54.90;;;;;;4887241;29;20036;-79
2023/08/17 13:44:45;;;;;;;0.10;0.10;;;30.30;55.70;;;;;;4903913;29;20043;-79
2023/08/17 13:47:12;;;;;;;0.10;0.10;;;30.40;56.10;;;;;;4886848;29;20051;-79
2023/08/17 13:49:37;;;;;;;0.00;0.00;;;30.10;56.10;;;;;;4903978;29;20080;-79
2023/08/17 13:52:03;;;;;;;0.08;0.08;;;29.90;56.30;;;;;;4903648;29;20024;-79
2023/08/17 13:54:29;;;;;;;0.00;0.00;;;29.80;56.30;;;;;;4903715;29;20052;-78
2023/08/17 13:56:55;;;;;;;0.10;0.10;;;29.90;56.10;;;;;;4903595;29;20028;-79
2023/08/17 13:59:20;;;;;;;0.00;0.00;;;30.00;55.50;;;;;;4903849;29;20418;-78
2023/08/17 14:01:46;;;;;;;0.08;0.08;;;30.00;55.50;;;;;;4903110;29;20087;-78
2023/08/17 14:04:12;;;;;;;0.10;0.10;;;30.20;57.00;;;;;;4903316;29;20055;-78
2023/08/17 14:06:38;;;;;;;0.00;0.00;;;30.20;56.70;;;;;;4902821;29;20387;-78
2023/08/17 14:09:04;;;;;;;0.00;0.00;;;30.30;56.50;;;;;;4903515;29;20407;-79
2023/08/17 14:11:30;;;;;;;0.10;0.10;;;30.30;55.40;;;;;;4903446;29;20547;-78
2023/08/17 14:13:56;;;;;;;0.00;0.00;;;30.30;57.40;;;;;;4903456;29;20052;-79
2023/08/17 14:16:21;;;;;;;0.00;0.00;;;30.40;56.10;;;;;;4903323;29;20025;-79
2023/08/17 14:18:47;;;;;;;0.00;0.00;;;30.50;56.30;;;;;;4886767;29;20029;-79
2023/08/17 14:21:13;;;;;;;0.10;0.10;;;30.50;56.10;;;;;;4903421;29;20020;-79
2023/08/17 14:23:39;;;;;;;0.10;0.10;;;30.60;56.20;;;;;;4903239;29;20597;-79
2023/08/17 14:26:05;;;;;;;0.00;0.00;;;30.60;55.80;;;;;;4902499;29;20024;-79
2023/08/17 14:28:30;;;;;;;0.00;0.00;;;30.30;55.90;;;;;;4903079;29;20476;-79
2023/08/17 14:30:56;;;;;;;0.00;0.00;;;30.10;56.40;;;;;;4903175;29;20517;-79
2023/08/17 14:33:21;;;;;;;0.00;0.00;;;29.80;56.80;;;;;;4886286;29;20032;-78
2023/08/17 14:35:47;;;;;;;0.00;0.00;;;29.80;58.00;;;;;;4903050;29;20024;-79
2023/08/17 14:38:13;;;;;;;0.00;0.00;;;29.70;57.20;;;;;;4903183;29;20056;-79
2023/08/17 14:40:43;;;;;;;0.00;0.00;;;29.70;57.80;;;;;;4886344;29;20029;-79
2023/08/17 14:43:11;;;;;;;0.00;0.00;;;29.60;59.00;;;;;;4886183;29;20035;-78
2023/08/17 14:45:37;;;;;;;0.00;0.00;;;29.60;58.70;;;;;;4902949;29;20379;-79
2023/08/17 14:48:03;;;;;;;0.10;0.00;;;29.70;58.20;;;;;;4903010;29;20039;-79
2023/08/17 14:50:29;;;;;;;0.00;0.00;;;29.60;58.80;;;;;;4902883;29;20514;-79
2023/08/17 14:52:54;;;;;;;0.00;0.00;;;29.70;59.80;;;;;;4902778;29;20029;-79
2023/08/17 14:55:20;;;;;;;0.00;0.00;;;29.70;59.00;;;;;;4886022;29;20036;-79
2023/08/17 14:57:45;;;;;;;0.00;0.00;;;29.70;59.70;;;;;;4886053;29;20036;-79
2023/08/17 15:00:12;;;;;;;0.00;0.00;;;29.60;58.00;;;;;;4886861;29;20036;-79
2023/08/17 15:02:37;;;;;;;0.00;0.00;;;29.80;58.00;;;;;;4885593;29;20128;-79
2023/08/17 15:05:03;;;;;;;0.00;0.00;;;29.80;58.10;;;;;;4902699;29;20056;-79
2023/08/17 15:07:28;;;;;;;0.00;0.00;;;30.00;56.30;;;;;;4885434;29;20044;-79
2023/08/17 15:09:54;;;;;;;0.00;0.00;;;29.80;56.10;;;;;;4902765;29;20072;-79
2023/08/17 15:12:20;;;;;;;0.00;0.00;;;29.80;56.80;;;;;;4901779;29;20492;-79
2023/08/17 15:14:45;;;;;;;0.00;0.00;;;29.60;57.30;;;;;;4885653;29;20512;-79
2023/08/17 15:17:12;;;;;;;0.00;0.00;;;29.50;57.20;;;;;;4885621;29;20025;-79
2023/08/17 15:19:38;;;;;;;0.00;0.00;;;29.30;58.00;;;;;;4902710;29;20029;-79
2023/08/17 15:22:04;;;;;;;0.00;0.00;;;29.30;58.00;;;;;;4885225;29;20033;-79
2023/08/17 15:24:29;;;;;;;0.00;0.00;;;29.30;57.80;;;;;;4902318;29;20515;-79
2023/08/17 15:26:55;;;;;;;0.00;0.00;;;29.20;58.10;;;;;;4885415;29;20514;-79
2023/08/17 15:29:20;;;;;;;0.00;0.00;;;29.20;58.20;;;;;;4902559;29;20037;-79
2023/08/17 15:31:46;;;;;;;0.00;0.00;;;29.20;58.00;;;;;;4885330;29;20052;-79
2023/08/17 15:34:12;;;;;;;0.03;0.03;;;29.20;57.80;;;;;;4902110;29;20096;-79
2023/08/17 15:36:37;;;;;;;0.00;0.00;;;29.30;58.30;;;;;;4902213;29;20033;-79
2023/08/17 15:39:03;;;;;;;0.10;0.10;;;29.60;57.90;;;;;;4902327;29;20099;-79
2023/08/17 15:41:29;;;;;;;0.00;0.00;;;29.80;58.00;;;;;;4902194;29;20033;-79
2023/08/17 15:43:54;;;;;;;0.10;0.00;;;30.10;56.50;;;;;;4885357;29;20392;-79
2023/08/17 15:46:20;;;;;;;0.00;0.00;;;30.00;56.80;;;;;;4885494;29;20028;-79
2023/08/17 15:48:46;;;;;;;0.00;0.00;;;29.80;57.80;;;;;;4902314;29;20047;-79
2023/08/17 15:51:11;;;;;;;0.00;0.00;;;29.60;58.30;;;;;;4902284;29;20086;-79
2023/08/17 15:53:39;;;;;;;0.10;0.10;;;29.50;59.00;;;;;;4902202;29;20492;-78
2023/08/17 15:56:05;;;;;;;0.08;0.00;;;29.50;59.00;;;;;;4902451;29;20013;-79
2023/08/17 15:58:30;;;;;;;0.00;0.00;;;29.80;58.40;;;;;;4902424;29;20092;-79
2023/08/17 16:00:56;;;;;;;0.00;0.00;;;29.90;57.80;;;;;;4902148;29;20032;-79
2023/08/17 16:03:22;;;;;;;0.00;0.00;;;30.00;57.20;;;;;;4884948;29;20057;-79
2023/08/17 16:05:48;;;;;;;0.00;0.00;;;30.00;56.90;;;;;;4888123;29;20024;-79
2023/08/17 16:08:13;;;;;;;0.00;0.00;;;30.00;55.00;;;;;;4884989;29;20522;-79
2023/08/17 16:10:39;;;;;;;0.00;0.00;;;30.00;54.90;;;;;;4902043;29;20024;-79
2023/08/17 16:13:04;;;;;;;0.00;0.00;;;30.00;56.10;;;;;;4901923;29;20020;-79
2023/08/17 16:15:30;;;;;;;0.00;0.00;;;30.00;56.00;;;;;;4885252;29;20492;-78
2023/08/17 16:17:56;;;;;;;0.00;0.00;;;30.00;55.40;;;;;;4902067;29;20036;-79
2023/08/17 16:20:21;;;;;;;0.00;0.00;;;30.10;55.90;;;;;;4901829;29;20159;-79
2023/08/17 16:22:47;;;;;;;0.00;0.00;;;29.90;55.80;;;;;;4901886;29;20396;-79
2023/08/17 16:25:13;;;;;;;0.00;0.00;;;29.70;56.40;;;;;;4888188;29;20028;-79
2023/08/17 16:27:38;;;;;;;0.00;0.00;;;29.50;56.90;;;;;;4905264;29;20482;-79
2023/08/17 16:30:05;;;;;;;0.00;0.00;;;29.50;58.20;;;;;;4904231;29;20031;-78
2023/08/17 16:32:31;;;;;;;0.00;0.00;;;29.50;57.60;;;;;;4889194;29;20064;-78
2023/08/17 16:34:57;;;;;;;0.00;0.00;;;29.70;56.80;;;;;;4905302;29;20048;-77
2023/08/17 16:37:23;;;;;;;0.00;0.00;;;29.60;57.20;;;;;;4904934;29;20432;-78
2023/08/17 16:39:49;;;;;;;0.00;0.00;;;29.50;57.30;;;;;;4905120;29;20142;-78
2023/08/17 16:42:14;;;;;;;0.00;0.00;;;29.40;58.30;;;;;;4905226;29;20061;-78
2023/08/17 16:44:40;;;;;;;0.00;0.00;;;29.30;58.80;;;;;;4905156;29;20027;-78
2023/08/17 16:47:05;;;;;;;0.00;0.00;;;29.20;58.70;;;;;;4888162;29;20067;-78
2023/08/17 16:49:31;;;;;;;0.00;0.00;;;29.00;59.20;;;;;;4904779;29;20025;-78
2023/08/17 16:51:58;;;;;;;0.00;0.00;;;28.80;58.70;;;;;;4888058;29;20387;-78
2023/08/17 16:54:24;;;;;;;0.00;0.00;;;28.70;59.30;;;;;;4904975;29;20013;-77
2023/08/17 16:56:50;;;;;;;0.00;0.00;;;28.70;58.60;;;;;;4904759;29;20037;-78
2023/08/17 16:59:15;;;;;;;0.00;0.00;;;28.50;59.40;;;;;;4887875;29;20033;-77
2023/08/17 17:01:41;;;;;;;0.00;0.00;;;28.60;59.80;;;;;;4905648;29;20033;-77
2023/08/17 17:04:06;;;;;;;0.00;0.00;;;28.50;60.00;;;;;;4904810;29;20111;-77
2023/08/17 17:06:32;;;;;;;0.00;0.00;;;28.50;59.90;;;;;;4887879;29;20060;-77
2023/08/17 17:08:58;;;;;;;0.00;0.00;;;28.40;60.10;;;;;;4904588;29;20539;-78
2023/08/17 17:11:24;;;;;;;0.00;0.00;;;28.40;61.00;;;;;;4887841;29;20028;-77
2023/08/17 17:13:49;;;;;;;0.00;0.00;;;28.40;61.60;;;;;;4904741;29;20041;-77